Time;durP1;ratioP1;P1;durP2;ratioP2;P2;SDS_P1;SDS_P2;PMS_P1;PMS_P2;Temp;Humidity;BMP_temperature;BMP_pressure;BME280_temperature;BME280_humidity;BME280_pressure;Samples;Min_cycle;Max_cycle;Signal;HPM_P1;HPM_P2
2023/07/31 00:00:35;;;;;;;;;2.00;2.00;;;;;-143.47;100.00;63865.75;2100472;28;46566;-47
2023/07/31 00:01:36;;;;;;;;;4.00;4.00;;;;;-143.47;100.00;63865.75;2099550;27;46534;-49
2023/07/31 00:02:36;;;;;;;;;1.67;1.67;;;;;-143.47;100.00;63865.75;2100283;28;46745;-50
2023/07/31 00:03:37;;;;;;;;;2.00;1.00;;;;;-143.47;100.00;63865.75;2097817;27;47027;-49
2023/07/31 00:04:37;;;;;;;;;2.00;2.00;;;;;-143.47;100.00;63865.75;2101821;28;46394;-50
2023/07/31 00:05:37;;;;;;;;;1.33;1.33;;;;;-143.47;100.00;63865.75;2099076;28;46670;-47
2023/07/31 00:06:37;;;;;;;;;2.00;2.00;;;;;-143.47;100.00;63865.75;2099608;27;46134;-50
2023/07/31 00:07:38;;;;;;;;;3.00;3.00;;;;;-143.47;100.00;63865.75;2100609;28;46403;-50
2023/07/31 00:08:38;;;;;;;;;2.00;2.00;;;;;-143.47;100.00;63865.75;2097782;28;45526;-49
2023/07/31 00:09:39;;;;;;;;;4.00;3.67;;;;;-143.47;100.00;63865.75;2104950;28;46288;-49
2023/07/31 00:10:39;;;;;;;;;1.67;0.00;;;;;-143.47;100.00;63865.75;2099954;28;47039;-50
2023/07/31 00:11:39;;;;;;;;;1.33;1.33;;;;;-143.47;100.00;63865.75;2106613;27;45531;-52
2023/07/31 00:12:42;;;;;;;;;1.00;1.00;;;;;-143.47;100.00;63865.75;2102883;27;46776;-51
2023/07/31 00:13:43;;;;;;;;;2.75;2.75;;;;;-143.47;100.00;63865.75;2098383;28;46391;-47
2023/07/31 00:14:43;;;;;;;;;3.33;3.33;;;;;-143.47;100.00;63865.75;2099781;27;46159;-51
2023/07/31 00:15:43;;;;;;;;;2.00;2.00;;;;;-143.47;100.00;63865.75;2100855;28;46602;-49
2023/07/31 00:16:44;;;;;;;;;2.00;2.00;;;;;-143.47;100.00;63865.75;2097928;28;46262;-47
2023/07/31 00:17:44;;;;;;;;;2.00;2.00;;;;;-143.47;100.00;63865.75;2098437;28;46622;-50
2023/07/31 00:18:44;;;;;;;;;3.00;1.33;;;;;-143.47;100.00;63865.75;2099688;28;46589;-47
2023/07/31 00:19:46;;;;;;;;;3.00;1.33;;;;;-143.47;100.00;63865.75;2106167;28;45684;-47
2023/07/31 00:20:46;;;;;;;;;4.00;3.00;;;;;-143.47;100.00;63865.75;2102560;27;46940;-46
2023/07/31 00:21:47;;;;;;;;;2.00;2.00;;;;;-143.47;100.00;63865.75;2099126;28;46160;-47
2023/07/31 00:22:47;;;;;;;;;2.00;2.00;;;;;-143.47;100.00;63865.75;2099871;28;45687;-47
2023/07/31 00:23:47;;;;;;;;;1.33;1.00;;;;;-143.47;100.00;63865.75;2098627;28;46593;-45
2023/07/31 00:24:48;;;;;;;;;2.00;2.00;;;;;-143.47;100.00;63865.75;2090430;28;46461;-46
2023/07/31 00:25:48;;;;;;;;;2.00;2.00;;;;;-143.47;100.00;63865.75;2099770;28;46260;-46
2023/07/31 00:26:48;;;;;;;;;2.75;2.75;;;;;-143.47;100.00;63865.75;2090515;28;46126;-49
2023/07/31 00:27:49;;;;;;;;;3.67;3.00;;;;;-143.47;100.00;63865.75;2090815;28;46641;-45
2023/07/31 00:28:49;;;;;;;;;4.33;3.33;;;;;-143.47;100.00;63865.75;2092608;28;46825;-45
2023/07/31 00:29:49;;;;;;;;;3.00;3.00;;;;;-143.47;100.00;63865.75;2088254;28;46205;-46
2023/07/31 00:30:50;;;;;;;;;2.00;2.00;;;;;-143.47;100.00;63865.75;2092191;28;46433;-47
2023/07/31 00:31:50;;;;;;;;;4.00;3.00;;;;;-143.47;100.00;63865.75;2090812;28;46163;-45
2023/07/31 00:32:50;;;;;;;;;3.00;2.33;;;;;-143.47;100.00;63865.75;2089753;28;46517;-48
2023/07/31 00:33:51;;;;;;;;;1.67;1.67;;;;;-143.47;100.00;63865.75;2093183;28;46877;-46
2023/07/31 00:34:51;;;;;;;;;3.00;3.00;;;;;-143.47;100.00;63865.75;2091604;28;45407;-48
2023/07/31 00:35:51;;;;;;;;;2.00;2.00;;;;;-143.47;100.00;63865.75;2083290;28;46259;-48
2023/07/31 00:36:52;;;;;;;;;3.00;2.00;;;;;-143.47;100.00;63865.75;2080081;28;46577;-46
2023/07/31 00:37:52;;;;;;;;;2.00;1.00;;;;;-143.47;100.00;63865.75;2088571;28;46057;-47
2023/07/31 00:38:52;;;;;;;;;2.00;2.00;;;;;-143.47;100.00;63865.75;2092551;28;46799;-46
2023/07/31 00:39:53;;;;;;;;;3.00;2.00;;;;;-143.47;100.00;63865.75;2090327;28;46481;-46
2023/07/31 00:40:53;;;;;;;;;1.00;1.00;;;;;-143.47;100.00;63865.75;2091057;28;46283;-45
2023/07/31 00:41:53;;;;;;;;;2.33;1.33;;;;;-143.47;100.00;63865.75;2089581;28;46407;-47
2023/07/31 00:42:53;;;;;;;;;2.67;2.67;;;;;-143.47;100.00;63865.75;2096446;28;46679;-47
2023/07/31 00:43:54;;;;;;;;;1.67;1.67;;;;;-143.47;100.00;63865.75;2088564;28;46705;-49
2023/07/31 00:44:54;;;;;;;;;3.00;3.00;;;;;-143.47;100.00;63865.75;2088009;28;46812;-50
2023/07/31 00:45:55;;;;;;;;;2.00;2.00;;;;;-143.47;100.00;63865.75;2079577;28;46420;-49
2023/07/31 00:46:56;;;;;;;;;2.67;2.00;;;;;-143.47;100.00;63865.75;2077932;28;46364;-46
2023/07/31 00:47:57;;;;;;;;;2.50;2.25;;;;;-143.47;100.00;63865.75;2080621;28;46611;-47
2023/07/31 00:48:57;;;;;;;;;3.00;1.33;;;;;-143.47;100.00;63865.75;2083161;28;46799;-48
2023/07/31 00:49:57;;;;;;;;;3.00;2.67;;;;;-143.47;100.00;63865.75;2091014;28;46451;-46
2023/07/31 00:50:58;;;;;;;;;0.33;0.33;;;;;-143.47;100.00;63865.75;2088172;28;46367;-49
2023/07/31 00:51:59;;;;;;;;;2.67;2.67;;;;;-143.47;100.00;63865.75;2087698;28;46163;-46
2023/07/31 00:52:59;;;;;;;;;2.00;2.00;;;;;-143.47;100.00;63865.75;2090955;28;46401;-49
2023/07/31 00:54:00;;;;;;;;;1.67;1.67;;;;;-143.47;100.00;63865.75;2081527;28;46441;-47
2023/07/31 00:55:01;;;;;;;;;2.00;2.00;;;;;-143.47;100.00;63865.75;2079535;28;46312;-47
2023/07/31 00:56:03;;;;;;;;;2.00;2.00;;;;;-143.47;100.00;63865.75;2084423;28;45826;-47
2023/07/31 00:57:03;;;;;;;;;3.75;3.75;;;;;-143.47;100.00;63865.75;2088858;28;45702;-48
2023/07/31 00:58:04;;;;;;;;;4.00;2.00;;;;;-143.47;100.00;63865.75;2093255;28;47001;-48
2023/07/31 00:59:04;;;;;;;;;3.00;3.00;;;;;-143.47;100.00;63865.75;2099510;27;46924;-47
2023/07/31 01:00:05;;;;;;;;;3.00;2.00;;;;;-143.47;100.00;63865.75;2097668;28;46622;-51
2023/07/31 01:01:05;;;;;;;;;5.00;4.75;;;;;-143.47;100.00;63865.75;2100428;28;47016;-49
2023/07/31 01:02:06;;;;;;;;;1.33;1.33;;;;;-143.47;100.00;63865.75;2105897;27;46392;-47
2023/07/31 01:03:07;;;;;;;;;1.00;1.00;;;;;-143.47;100.00;63865.75;2100019;27;46284;-48
2023/07/31 01:04:07;;;;;;;;;1.00;1.00;;;;;-143.47;100.00;63865.75;2097427;28;45976;-47
2023/07/31 01:05:08;;;;;;;;;1.33;1.33;;;;;-143.47;100.00;63865.75;2107595;27;46513;-47
2023/07/31 01:06:23;;;;;;;;;2.00;2.00;;;;;-143.47;100.00;63865.75;2102659;28;46281;-48
2023/07/31 01:07:30;;;;;;;;;2.25;1.75;;;;;-143.47;100.00;63865.75;2099333;28;46511;-49
2023/07/31 01:08:46;;;;;;;;;2.00;2.00;;;;;-143.47;100.00;63865.75;2097615;27;46576;-51
2023/07/31 01:10:10;;;;;;;;;4.75;1.50;;;;;-143.47;100.00;63865.75;2103853;28;46778;-49
2023/07/31 01:11:27;;;;;;;;;2.00;2.00;;;;;-143.47;100.00;63865.75;2103810;28;46644;-49
2023/07/31 01:12:30;;;;;;;;;0.75;0.75;;;;;-143.47;100.00;63865.75;2092122;28;46225;-49
2023/07/31 01:13:31;;;;;;;;;2.00;1.00;;;;;-143.47;100.00;63865.75;2096571;28;46696;-53
2023/07/31 01:14:31;;;;;;;;;0.67;0.67;;;;;-143.47;100.00;63865.75;2103774;28;46410;-51
2023/07/31 01:15:31;;;;;;;;;3.00;3.00;;;;;-143.47;100.00;63865.75;2098840;27;46321;-49
2023/07/31 01:16:31;;;;;;;;;2.00;2.00;;;;;-143.47;100.00;63865.75;2103216;27;46549;-51
2023/07/31 01:17:32;;;;;;;;;2.00;1.00;;;;;-143.47;100.00;63865.75;2101893;28;46434;-47
2023/07/31 01:18:32;;;;;;;;;1.67;1.00;;;;;-143.47;100.00;63865.75;2099969;27;46835;-46
2023/07/31 01:19:33;;;;;;;;;3.00;3.00;;;;;-143.47;100.00;63865.75;2103479;28;46742;-45
2023/07/31 01:20:36;;;;;;;;;2.67;2.67;;;;;-143.47;100.00;63865.75;2099256;28;46623;-46
2023/07/31 01:21:36;;;;;;;;;0.00;0.00;;;;;-143.47;100.00;63865.75;2101816;27;46358;-47
2023/07/31 01:22:58;;;;;;;;;1.00;1.00;;;;;-143.47;100.00;63865.75;2103510;28;46860;-47
2023/07/31 01:24:23;;;;;;;;;1.25;1.25;;;;;-143.47;100.00;63865.75;2099372;28;45667;-49
2023/07/31 01:25:44;;;;;;;;;3.25;2.00;;;;;-143.47;100.00;63865.75;2105093;28;46936;-47
2023/07/31 01:26:49;;;;;;;;;2.75;2.75;;;;;-143.47;100.00;63865.75;2089529;28;46818;-47
2023/07/31 01:28:13;;;;;;;;;3.25;2.25;;;;;-143.47;100.00;63865.75;2100372;27;46408;-46
2023/07/31 01:29:26;;;;;;;;;2.25;2.25;;;;;-143.47;100.00;63865.75;2101408;28;46608;-47
2023/07/31 01:30:35;;;;;;;;;1.75;1.00;;;;;-143.47;100.00;63865.75;2100973;28;46349;-49
2023/07/31 01:31:36;;;;;;;;;0.75;0.75;;;;;-143.47;100.00;63865.75;2097723;28;46992;-46
2023/07/31 01:32:42;;;;;;;;;2.75;2.75;;;;;-143.47;100.00;63865.75;2100837;27;46366;-47
2023/07/31 01:33:42;;;;;;;;;2.00;1.75;;;;;-143.47;100.00;63865.75;2101472;28;46262;-47
2023/07/31 01:34:44;;;;;;;;;1.00;1.00;;;;;-143.47;100.00;63865.75;2097314;28;46016;-47
2023/07/31 01:35:46;;;;;;;;;0.50;0.00;;;;;-143.47;100.00;63865.75;2101384;28;46342;-45
2023/07/31 01:36:46;;;;;;;;;1.25;1.25;;;;;-143.47;100.00;63865.75;2100481;28;46660;-45
2023/07/31 01:37:46;;;;;;;;;1.00;1.00;;;;;-143.47;100.00;63865.75;2097007;28;46294;-47
2023/07/31 01:38:47;;;;;;;;;2.00;2.00;;;;;-143.47;100.00;63865.75;2092492;28;45406;-48
2023/07/31 01:39:47;;;;;;;;;3.00;2.00;;;;;-143.47;100.00;63865.75;2088144;28;46782;-49
2023/07/31 01:40:52;;;;;;;;;2.33;2.00;;;;;-143.47;100.00;63865.75;2088291;28;46620;-51
2023/07/31 01:41:52;;;;;;;;;1.00;1.00;;;;;-143.47;100.00;63865.75;2097231;28;46639;-51
2023/07/31 01:42:53;;;;;;;;;2.00;2.00;;;;;-143.47;100.00;63865.75;2098047;28;45890;-50
2023/07/31 01:43:53;;;;;;;;;3.00;3.00;;;;;-143.47;100.00;63865.75;2100871;27;46219;-47
2023/07/31 01:44:53;;;;;;;;;1.33;1.33;;;;;-143.47;100.00;63865.75;2101132;28;46282;-46
2023/07/31 01:45:54;;;;;;;;;2.33;2.33;;;;;-143.47;100.00;63865.75;2097889;28;45995;-47
2023/07/31 01:46:54;;;;;;;;;2.00;1.00;;;;;-143.47;100.00;63865.75;2104778;28;45867;-46
2023/07/31 01:47:54;;;;;;;;;2.67;2.00;;;;;-143.47;100.00;63865.75;2105608;27;46767;-48
2023/07/31 01:48:55;;;;;;;;;7.00;2.00;;;;;-143.47;100.00;63865.75;2098762;27;46276;-45
2023/07/31 01:49:55;;;;;;;;;1.00;1.00;;;;;-143.47;100.00;63865.75;2101148;28;46791;-46
2023/07/31 01:50:55;;;;;;;;;3.00;1.00;;;;;-143.47;100.00;63865.75;2097732;28;46209;-46
2023/07/31 01:51:56;;;;;;;;;2.00;2.00;;;;;-143.47;100.00;63865.75;2097505;27;46679;-45
2023/07/31 01:52:56;;;;;;;;;2.67;1.67;;;;;-143.47;100.00;63865.75;2099810;28;46980;-45
2023/07/31 01:53:56;;;;;;;;;3.00;3.00;;;;;-143.47;100.00;63865.75;2088459;28;46612;-45
2023/07/31 01:54:57;;;;;;;;;1.00;1.00;;;;;-143.47;100.00;63865.75;2091843;28;45982;-45
2023/07/31 01:55:57;;;;;;;;;1.67;1.67;;;;;-143.47;100.00;63865.75;2097538;28;46347;-45
2023/07/31 01:56:57;;;;;;;;;1.67;1.67;;;;;-143.47;100.00;63865.75;2100042;27;46329;-47
2023/07/31 01:57:57;;;;;;;;;0.67;0.67;;;;;-143.47;100.00;63865.75;2100727;28;46433;-46
2023/07/31 01:58:58;;;;;;;;;0.67;0.67;;;;;-143.47;100.00;63865.75;2096900;28;46590;-48
2023/07/31 01:59:58;;;;;;;;;4.00;2.00;;;;;-143.47;100.00;63865.75;2095862;28;46567;-47
2023/07/31 02:00:58;;;;;;;;;2.00;2.00;;;;;-143.47;100.00;63865.75;2098710;28;45648;-46
2023/07/31 02:01:59;;;;;;;;;1.00;1.00;;;;;-143.47;100.00;63865.75;2098962;27;46164;-48
2023/07/31 02:02:59;;;;;;;;;3.33;1.33;;;;;-143.47;100.00;63865.75;2100640;28;45475;-47
2023/07/31 02:04:00;;;;;;;;;1.00;1.00;;;;;-143.47;100.00;63865.75;2096787;28;46483;-50
2023/07/31 02:05:00;;;;;;;;;3.67;1.00;;;;;-143.47;100.00;63865.75;2097632;28;46231;-50
2023/07/31 02:06:01;;;;;;;;;1.67;1.00;;;;;-143.47;100.00;63865.75;2093576;28;46612;-49
2023/07/31 02:07:01;;;;;;;;;1.00;1.00;;;;;-143.47;100.00;63865.75;2095240;28;46964;-47
2023/07/31 02:08:01;;;;;;;;;2.67;2.67;;;;;-143.47;100.00;63865.75;2104119;28;46690;-46
2023/07/31 02:09:03;;;;;;;;;3.00;1.00;;;;;-143.47;100.00;63865.75;2103542;28;46825;-46
2023/07/31 02:10:04;;;;;;;;;0.75;0.75;;;;;-143.47;100.00;63865.75;2094610;28;46990;-48
2023/07/31 02:11:04;;;;;;;;;1.00;1.00;;;;;-143.47;100.00;63865.75;2100833;28;46751;-47
2023/07/31 02:12:05;;;;;;;;;1.00;1.00;;;;;-143.47;100.00;63865.75;2100047;27;45700;-47
2023/07/31 02:13:05;;;;;;;;;2.00;2.00;;;;;-143.47;100.00;63865.75;2104079;28;46894;-47
2023/07/31 02:14:05;;;;;;;;;1.67;1.00;;;;;-143.47;100.00;63865.75;2105537;27;46692;-48
2023/07/31 02:15:06;;;;;;;;;1.00;1.00;;;;;-143.47;100.00;63865.75;2102364;28;46294;-46
2023/07/31 02:16:08;;;;;;;;;2.50;1.50;;;;;-143.47;100.00;63865.75;2104785;28;47053;-46
2023/07/31 02:17:08;;;;;;;;;1.00;1.00;;;;;-143.47;100.00;63865.75;2098651;27;46409;-47
2023/07/31 02:18:09;;;;;;;;;1.00;1.00;;;;;-143.47;100.00;63865.75;2105614;27;46243;-48
2023/07/31 02:19:09;;;;;;;;;1.67;1.00;;;;;-143.47;100.00;63865.75;2105615;27;45777;-50
2023/07/31 02:20:10;;;;;;;;;2.00;2.00;;;;;-143.47;100.00;63865.75;2099947;27;46880;-50
2023/07/31 02:21:10;;;;;;;;;2.33;2.00;;;;;-143.47;100.00;63865.75;2103898;28;46834;-50
2023/07/31 02:22:10;;;;;;;;;1.00;1.00;;;;;-143.47;100.00;63865.75;2096704;28;46595;-48
2023/07/31 02:23:10;;;;;;;;;0.67;0.67;;;;;-143.47;100.00;63865.75;2096866;28;47285;-49
2023/07/31 02:24:11;;;;;;;;;2.00;1.00;;;;;-143.47;100.00;63865.75;2103197;28;46673;-47
2023/07/31 02:25:11;;;;;;;;;1.00;1.00;;;;;-143.47;100.00;63865.75;2104492;27;45381;-49
2023/07/31 02:26:12;;;;;;;;;2.67;1.00;;;;;-143.47;100.00;63865.75;2090750;28;47060;-48
2023/07/31 02:27:12;;;;;;;;;2.00;2.00;;;;;-143.47;100.00;63865.75;2100475;28;46511;-49
2023/07/31 02:28:12;;;;;;;;;2.00;2.00;;;;;-143.47;100.00;63865.75;2105384;27;46625;-49
2023/07/31 02:29:13;;;;;;;;;1.67;1.67;;;;;-143.47;100.00;63865.75;2105012;27;46866;-48
2023/07/31 02:30:13;;;;;;;;;2.67;2.00;;;;;-143.47;100.00;63865.75;2097603;28;46404;-46
2023/07/31 02:31:13;;;;;;;;;1.00;0.67;;;;;-143.47;100.00;63865.75;2097090;28;46635;-47
2023/07/31 02:32:14;;;;;;;;;1.00;1.00;;;;;-143.47;100.00;63865.75;2099016;28;45956;-47
2023/07/31 02:33:16;;;;;;;;;1.00;1.00;;;;;-143.47;100.00;63865.75;2097554;28;46592;-48
2023/07/31 02:34:16;;;;;;;;;0.00;0.00;;;;;-143.47;100.00;63865.75;2104612;27;46371;-46
2023/07/31 02:35:18;;;;;;;;;2.00;0.67;;;;;-143.47;100.00;63865.75;2101256;28;46568;-48
2023/07/31 02:36:19;;;;;;;;;1.00;1.00;;;;;-143.47;100.00;63865.75;2102307;27;46598;-47
2023/07/31 02:37:19;;;;;;;;;3.00;0.00;;;;;-143.47;100.00;63865.75;2104617;28;46421;-54
2023/07/31 02:38:19;;;;;;;;;0.00;0.00;;;;;-143.47;100.00;63865.75;2101297;27;46521;-49
2023/07/31 02:39:19;;;;;;;;;0.00;0.00;;;;;-143.47;100.00;63865.75;2104165;27;46604;-46
2023/07/31 02:40:20;;;;;;;;;1.00;1.00;;;;;-143.47;100.00;63865.75;2102618;28;46466;-46
2023/07/31 02:41:20;;;;;;;;;1.00;1.00;;;;;-143.47;100.00;63865.75;2100739;27;47088;-47
2023/07/31 02:42:20;;;;;;;;;1.00;1.00;;;;;-143.47;100.00;63865.75;2097788;27;46885;-47
2023/07/31 02:43:21;;;;;;;;;2.67;0.67;;;;;-143.47;100.00;63865.75;2100963;28;46513;-48
2023/07/31 02:44:21;;;;;;;;;2.00;2.00;;;;;-143.47;100.00;63865.75;2102083;27;45871;-46
2023/07/31 02:45:21;;;;;;;;;0.00;0.00;;;;;-143.47;100.00;63865.75;2104426;28;46275;-47
2023/07/31 02:46:24;;;;;;;;;1.33;1.00;;;;;-143.47;100.00;63865.75;2101972;27;46420;-46
2023/07/31 02:47:24;;;;;;;;;0.50;0.50;;;;;-143.47;100.00;63865.75;2102007;27;46203;-47
2023/07/31 02:48:25;;;;;;;;;0.67;0.00;;;;;-143.47;100.00;63865.75;2096762;28;45832;-47
2023/07/31 02:49:25;;;;;;;;;1.00;0.67;;;;;-143.47;100.00;63865.75;2100160;28;46154;-47
2023/07/31 02:50:27;;;;;;;;;1.67;1.67;;;;;-143.47;100.00;63865.75;2105228;27;46170;-46
2023/07/31 02:51:27;;;;;;;;;0.00;0.00;;;;;-143.47;100.00;63865.75;2098735;28;46484;-48
2023/07/31 02:52:28;;;;;;;;;1.00;1.00;;;;;-143.47;100.00;63865.75;2096191;28;47107;-47
2023/07/31 02:53:28;;;;;;;;;1.00;1.00;;;;;-143.47;100.00;63865.75;2096141;28;46141;-47
2023/07/31 02:54:28;;;;;;;;;1.00;0.67;;;;;-143.47;100.00;63865.75;2099336;28;46873;-46
2023/07/31 02:55:29;;;;;;;;;1.00;1.00;;;;;-143.47;100.00;63865.75;2105303;27;46614;-46
2023/07/31 02:56:29;;;;;;;;;2.00;1.33;;;;;-143.47;100.00;63865.75;2104371;27;45295;-48
2023/07/31 02:57:29;;;;;;;;;2.33;1.33;;;;;-143.47;100.00;63865.75;2094595;28;46272;-46
2023/07/31 02:58:30;;;;;;;;;1.00;1.00;;;;;-143.47;100.00;63865.75;2095250;28;46259;-50
2023/07/31 02:59:30;;;;;;;;;2.00;1.00;;;;;-143.47;100.00;63865.75;2104156;28;46776;-50
2023/07/31 03:00:30;;;;;;;;;2.00;1.00;;;;;-143.47;100.00;63865.75;2104931;28;46408;-50
2023/07/31 03:01:31;;;;;;;;;1.33;1.33;;;;;-143.47;100.00;63865.75;2103522;28;46846;-50
2023/07/31 03:02:31;;;;;;;;;1.00;0.00;;;;;-143.47;100.00;63865.75;2104233;28;46351;-52
2023/07/31 03:03:31;;;;;;;;;0.67;0.67;;;;;-143.47;100.00;63865.75;2104178;27;46190;-47
2023/07/31 03:04:31;;;;;;;;;1.00;1.00;;;;;-143.47;100.00;63865.75;2103819;28;45537;-47
2023/07/31 03:05:32;;;;;;;;;0.00;0.00;;;;;-143.47;100.00;63865.75;2095578;28;46282;-47
2023/07/31 03:06:32;;;;;;;;;1.00;1.00;;;;;-143.47;100.00;63865.75;2105034;28;46802;-46
2023/07/31 03:07:32;;;;;;;;;1.67;0.33;;;;;-143.47;100.00;63865.75;2091896;28;45567;-45
2023/07/31 03:08:33;;;;;;;;;1.00;1.00;;;;;-143.47;100.00;63865.75;2087764;28;45745;-46
2023/07/31 03:09:33;;;;;;;;;0.00;0.00;;;;;-143.47;100.00;63865.75;2096609;28;45581;-46
2023/07/31 03:10:33;;;;;;;;;1.00;1.00;;;;;-143.47;100.00;63865.75;2096774;28;46713;-46
2023/07/31 03:11:34;;;;;;;;;0.00;0.00;;;;;-143.47;100.00;63865.75;2096805;28;46644;-46
2023/07/31 03:12:34;;;;;;;;;0.00;0.00;;;;;-143.47;100.00;63865.75;2096707;28;46753;-48
2023/07/31 03:13:34;;;;;;;;;2.00;1.00;;;;;-143.47;100.00;63865.75;2096514;28;45914;-46
2023/07/31 03:14:35;;;;;;;;;0.33;0.33;;;;;-143.47;100.00;63865.75;2097178;28;46459;-46
2023/07/31 03:15:35;;;;;;;;;0.67;0.00;;;;;-143.47;100.00;63865.75;2098007;28;46370;-45
2023/07/31 03:16:35;;;;;;;;;2.00;2.00;;;;;-143.47;100.00;63865.75;2104886;27;46066;-45
2023/07/31 03:17:36;;;;;;;;;1.33;1.33;;;;;-143.47;100.00;63865.75;2104664;27;46403;-47
2023/07/31 03:18:36;;;;;;;;;0.67;0.67;;;;;-143.47;100.00;63865.75;2104413;27;46756;-46
2023/07/31 03:19:36;;;;;;;;;0.00;0.00;;;;;-143.47;100.00;63865.75;2104540;28;46545;-51
2023/07/31 03:20:36;;;;;;;;;0.00;0.00;;;;;-143.47;100.00;63865.75;2104950;27;45483;-51
2023/07/31 03:21:37;;;;;;;;;0.00;0.00;;;;;-143.47;100.00;63865.75;2098880;27;46389;-48
2023/07/31 03:22:37;;;;;;;;;0.00;0.00;;;;;-143.47;100.00;63865.75;2102559;28;46100;-48
2023/07/31 03:23:38;;;;;;;;;0.33;0.00;;;;;-143.47;100.00;63865.75;2104115;27;46244;-49
2023/07/31 03:24:38;;;;;;;;;0.00;0.00;;;;;-143.47;100.00;63865.75;2096126;28;46961;-49
2023/07/31 03:25:55;;;;;;;;;1.00;1.00;;;;;-143.47;100.00;63865.75;2096190;28;45926;-50
2023/07/31 03:26:55;;;;;;;;;0.75;0.50;;;;;-143.47;100.00;63865.75;2096321;28;46306;-49
2023/07/31 03:27:55;;;;;;;;;0.00;0.00;;;;;-143.47;100.00;63865.75;2096778;28;46445;-48
2023/07/31 03:28:56;;;;;;;;;0.00;0.00;;;;;-143.47;100.00;63865.75;2096726;28;46781;-50
2023/07/31 03:29:56;;;;;;;;;3.33;1.00;;;;;-143.47;100.00;63865.75;2096646;28;46556;-49
2023/07/31 03:30:57;;;;;;;;;1.33;1.33;;;;;-143.47;100.00;63865.75;2097015;28;46256;-50
2023/07/31 03:31:57;;;;;;;;;0.00;0.00;;;;;-143.47;100.00;63865.75;2096290;28;46415;-46
2023/07/31 03:32:57;;;;;;;;;1.00;1.00;;;;;-143.47;100.00;63865.75;2096609;28;45853;-48
2023/07/31 03:33:57;;;;;;;;;0.00;0.00;;;;;-143.47;100.00;63865.75;2096464;28;45174;-49
2023/07/31 03:34:58;;;;;;;;;0.33;0.33;;;;;-143.47;100.00;63865.75;2096832;28;46540;-48
2023/07/31 03:35:58;;;;;;;;;0.00;0.00;;;;;-143.47;100.00;63865.75;2096811;28;46580;-47
2023/07/31 03:36:59;;;;;;;;;0.67;0.67;;;;;-143.47;100.00;63865.75;2097200;28;46508;-47
2023/07/31 03:37:59;;;;;;;;;0.33;0.00;;;;;-143.47;100.00;63865.75;2097122;28;47941;-47
2023/07/31 03:38:59;;;;;;;;;0.00;0.00;;;;;-143.47;100.00;63865.75;2100327;28;46365;-47
2023/07/31 03:39:59;;;;;;;;;1.00;1.00;;;;;-143.47;100.00;63865.75;2100019;28;46317;-47
2023/07/31 03:41:00;;;;;;;;;1.00;1.00;;;;;-143.47;100.00;63865.75;2105789;28;46729;-48
2023/07/31 03:42:00;;;;;;;;;0.33;0.33;;;;;-143.47;100.00;63865.75;2100341;28;46316;-49
2023/07/31 03:43:01;;;;;;;;;0.00;0.00;;;;;-143.47;100.00;63865.75;2097836;28;46220;-51
2023/07/31 03:44:01;;;;;;;;;1.00;0.00;;;;;-143.47;100.00;63865.75;2098192;28;46581;-51
2023/07/31 03:45:01;;;;;;;;;0.33;0.00;;;;;-143.47;100.00;63865.75;2101995;28;45712;-48
2023/07/31 03:46:02;;;;;;;;;1.67;1.00;;;;;-143.47;100.00;63865.75;2105656;28;46315;-50
2023/07/31 03:47:02;;;;;;;;;2.00;1.00;;;;;-143.47;100.00;63865.75;2096728;28;46241;-51
2023/07/31 03:48:05;;;;;;;;;0.33;0.33;;;;;-143.47;100.00;63865.75;2097555;28;45521;-50
2023/07/31 03:49:05;;;;;;;;;0.25;0.25;;;;;-143.47;100.00;63865.75;2098208;28;47407;-46
2023/07/31 03:50:06;;;;;;;;;1.00;1.00;;;;;-143.47;100.00;63865.75;2097835;28;46632;-48
2023/07/31 03:51:06;;;;;;;;;0.33;0.00;;;;;-143.47;100.00;63865.75;2097809;28;46429;-50
2023/07/31 03:52:07;;;;;;;;;1.67;1.67;;;;;-143.47;100.00;63865.75;2097999;28;46162;-49
2023/07/31 03:53:07;;;;;;;;;1.00;1.00;;;;;-143.47;100.00;63865.75;2097688;28;46490;-47
2023/07/31 03:54:07;;;;;;;;;0.00;0.00;;;;;-143.47;100.00;63865.75;2098215;28;46335;-47
2023/07/31 03:55:08;;;;;;;;;0.33;0.33;;;;;-143.47;100.00;63865.75;2096946;28;46435;-51
2023/07/31 03:56:08;;;;;;;;;2.00;1.67;;;;;-143.47;100.00;63865.75;2098159;28;46010;-50
2023/07/31 03:57:09;;;;;;;;;0.33;0.33;;;;;-143.47;100.00;63865.75;2096612;28;46037;-49
2023/07/31 03:58:09;;;;;;;;;4.00;2.00;;;;;-143.47;100.00;63865.75;2095373;28;46765;-47
2023/07/31 03:59:09;;;;;;;;;1.00;1.00;;;;;-143.47;100.00;63865.75;2094685;28;46261;-51
2023/07/31 04:00:10;;;;;;;;;0.00;0.00;;;;;-143.47;100.00;63865.75;2106589;27;45756;-48
2023/07/31 04:01:11;;;;;;;;;2.67;1.33;;;;;-143.47;100.00;63865.75;2102946;27;46733;-47
2023/07/31 04:02:14;;;;;;;;;0.00;0.00;;;;;-143.47;100.00;63865.75;2103049;28;45936;-48
2023/07/31 04:03:14;;;;;;;;;1.25;1.25;;;;;-143.47;100.00;63865.75;2095249;28;46406;-50
2023/07/31 04:04:14;;;;;;;;;1.00;1.00;;;;;-143.47;100.00;63865.75;2099253;28;46263;-48
2023/07/31 04:05:15;;;;;;;;;2.33;1.00;;;;;-143.47;100.00;63865.75;2099858;27;46223;-51
2023/07/31 04:06:17;;;;;;;;;0.00;0.00;;;;;-143.47;100.00;63865.75;2103515;28;45933;-50
2023/07/31 04:07:18;;;;;;;;;1.25;0.25;;;;;-143.47;100.00;63865.75;2102028;27;46410;-51
2023/07/31 04:08:18;;;;;;;;;0.00;0.00;;;;;-143.47;100.00;63865.75;2097596;28;46017;-49
2023/07/31 04:09:19;;;;;;;;;1.33;1.33;;;;;-143.47;100.00;63865.75;2102520;28;46098;-49
2023/07/31 04:10:19;;;;;;;;;1.67;1.00;;;;;-143.47;100.00;63865.75;2102990;27;46594;-48
2023/07/31 04:11:20;;;;;;;;;0.00;0.00;;;;;-143.47;100.00;63865.75;2105534;28;45699;-50
2023/07/31 04:12:20;;;;;;;;;0.67;0.67;;;;;-143.47;100.00;63865.75;2102375;27;46978;-51
2023/07/31 04:13:22;;;;;;;;;0.00;0.00;;;;;-143.47;100.00;63865.75;2105126;27;46565;-47
2023/07/31 04:14:22;;;;;;;;;0.50;0.50;;;;;-143.47;100.00;63865.75;2103709;28;46680;-48
2023/07/31 04:15:23;;;;;;;;;1.33;1.00;;;;;-143.47;100.00;63865.75;2105821;28;46622;-47
2023/07/31 04:16:23;;;;;;;;;2.00;1.00;;;;;-143.47;100.00;63865.75;2105489;28;45934;-49
2023/07/31 04:17:23;;;;;;;;;0.00;0.00;;;;;-143.47;100.00;63865.75;2102378;27;46365;-51
2023/07/31 04:18:25;;;;;;;;;1.00;1.00;;;;;-143.47;100.00;63865.75;2103186;27;46252;-48
2023/07/31 04:19:25;;;;;;;;;1.50;1.50;;;;;-143.47;100.00;63865.75;2104182;28;45722;-50
2023/07/31 04:20:25;;;;;;;;;0.33;0.33;;;;;-143.47;100.00;63865.75;2097902;27;46521;-49
2023/07/31 04:21:25;;;;;;;;;1.00;1.00;;;;;-143.47;100.00;63865.75;2091935;28;45952;-49
2023/07/31 04:22:26;;;;;;;;;1.67;1.33;;;;;-143.47;100.00;63865.75;2103315;28;46442;-50
2023/07/31 04:23:26;;;;;;;;;5.33;1.00;;;;;-143.47;100.00;63865.75;2102230;27;46380;-51
2023/07/31 04:24:27;;;;;;;;;2.00;2.00;;;;;-143.47;100.00;63865.75;2097666;28;46859;-51
2023/07/31 04:25:27;;;;;;;;;0.67;0.67;;;;;-143.47;100.00;63865.75;2101474;28;46655;-51
2023/07/31 04:26:27;;;;;;;;;1.00;1.00;;;;;-143.47;100.00;63865.75;2097733;28;46386;-48
2023/07/31 04:27:28;;;;;;;;;0.00;0.00;;;;;-143.47;100.00;63865.75;2104983;28;46197;-49
2023/07/31 04:28:28;;;;;;;;;1.00;1.00;;;;;-143.47;100.00;63865.75;2104389;27;46361;-49
2023/07/31 04:29:28;;;;;;;;;1.00;1.00;;;;;-143.47;100.00;63865.75;2106542;27;46338;-49
2023/07/31 04:30:28;;;;;;;;;2.33;0.67;;;;;-143.47;100.00;63865.75;2104189;27;46077;-49
2023/07/31 04:31:29;;;;;;;;;2.67;2.67;;;;;-143.47;100.00;63865.75;2104487;27;46598;-48
2023/07/31 04:32:29;;;;;;;;;1.00;1.00;;;;;-143.47;100.00;63865.75;2106086;27;46640;-51
2023/07/31 04:33:29;;;;;;;;;1.00;1.00;;;;;-143.47;100.00;63865.75;2104257;28;46119;-49
2023/07/31 04:34:30;;;;;;;;;2.00;2.00;;;;;-143.47;100.00;63865.75;2103392;27;46904;-48
2023/07/31 04:35:30;;;;;;;;;1.00;1.00;;;;;-143.47;100.00;63865.75;2104860;28;46395;-51
2023/07/31 04:36:30;;;;;;;;;0.00;0.00;;;;;-143.47;100.00;63865.75;2101622;27;46283;-48
2023/07/31 04:37:31;;;;;;;;;3.00;1.00;;;;;-143.47;100.00;63865.75;2105542;28;46307;-47
2023/07/31 04:38:31;;;;;;;;;1.67;1.67;;;;;-143.47;100.00;63865.75;2104798;28;46929;-49